sensor_id;sensor_type;location;lat;lon;timestamp;pressure;altitude;pressure_sealevel;temperature;humidity
51359;BME280;37448;51.588;7.248;2023-05-25T00:00:45;101880.13;;;9.14;82.05
51359;BME280;37448;51.588;7.248;2023-05-25T00:02:46;101870.53;;;9.07;82.81
51359;BME280;37448;51.588;7.248;2023-05-25T00:04:46;101872.22;;;9.02;82.67
51359;BME280;37448;51.588;7.248;2023-05-25T00:06:47;101864.38;;;8.96;82.44
51359;BME280;37448;51.588;7.248;2023-05-25T00:08:48;101861.78;;;8.93;82.24
51359;BME280;37448;51.588;7.248;2023-05-25T00:10:50;101865.22;;;8.88;82.58
51359;BME280;37448;51.588;7.248;2023-05-25T00:12:51;101865.22;;;8.88;82.95
51359;BME280;37448;51.588;7.248;2023-05-25T00:14:51;101866.97;;;8.86;82.71
51359;BME280;37448;51.588;7.248;2023-05-25T00:16:51;101872.16;;;8.83;82.93
51359;BME280;37448;51.588;7.248;2023-05-25T00:18:52;101865.19;;;8.82;83.13
51359;BME280;37448;51.588;7.248;2023-05-25T00:20:56;101862.56;;;8.81;82.94
51359;BME280;37448;51.588;7.248;2023-05-25T00:22:56;101863.41;;;8.78;83.21
51359;BME280;37448;51.588;7.248;2023-05-25T00:24:57;101860.81;;;8.76;83.38
51359;BME280;37448;51.588;7.248;2023-05-25T00:26:57;101871.22;;;8.75;82.94
51359;BME280;37448;51.588;7.248;2023-05-25T00:28:58;101861.66;;;8.74;82.98
51359;BME280;37448;51.588;7.248;2023-05-25T00:31:01;101861.66;;;8.71;83.16
51359;BME280;37448;51.588;7.248;2023-05-25T00:33:01;101859.91;;;8.70;82.87
51359;BME280;37448;51.588;7.248;2023-05-25T00:35:02;101863.34;;;8.67;83.53
51359;BME280;37448;51.588;7.248;2023-05-25T00:37:03;101862.53;;;8.68;83.65
51359;BME280;37448;51.588;7.248;2023-05-25T00:39:03;101856.41;;;8.66;82.90
51359;BME280;37448;51.588;7.248;2023-05-25T00:41:04;101857.28;;;8.64;83.00
51359;BME280;37448;51.588;7.248;2023-05-25T00:43:07;101868.56;;;8.63;83.19
51359;BME280;37448;51.588;7.248;2023-05-25T00:45:08;101868.56;;;8.63;83.67
51359;BME280;37448;51.588;7.248;2023-05-25T00:47:09;101865.06;;;8.60;83.16
51359;BME280;37448;51.588;7.248;2023-05-25T00:49:13;101862.44;;;8.57;83.88
51359;BME280;37448;51.588;7.248;2023-05-25T00:51:14;101864.16;;;8.55;83.70
51359;BME280;37448;51.588;7.248;2023-05-25T00:53:15;101862.41;;;8.54;82.91
51359;BME280;37448;51.588;7.248;2023-05-25T00:55:17;101862.41;;;8.54;83.45
51359;BME280;37448;51.588;7.248;2023-05-25T00:57:21;101866.72;;;8.52;83.42
51359;BME280;37448;51.588;7.248;2023-05-25T00:59:27;101864.13;;;8.51;83.83
51359;BME280;37448;51.588;7.248;2023-05-25T01:01:32;101858.03;;;8.48;83.90
51359;BME280;37448;51.588;7.248;2023-05-25T01:03:40;101858.84;;;8.46;84.38
51359;BME280;37448;51.588;7.248;2023-05-25T01:05:46;101855.41;;;8.45;85.00
51359;BME280;37448;51.588;7.248;2023-05-25T01:07:48;101858.84;;;8.43;84.41
51359;BME280;37448;51.588;7.248;2023-05-25T01:09:57;101857.97;;;8.44;84.26
51359;BME280;37448;51.588;7.248;2023-05-25T01:11:58;101863.16;;;8.41;85.18
51359;BME280;37448;51.588;7.248;2023-05-25T01:14:01;101854.47;;;8.39;84.91
51359;BME280;37448;51.588;7.248;2023-05-25T01:16:02;101857.94;;;8.39;85.23
51359;BME280;37448;51.588;7.248;2023-05-25T01:18:02;101859.69;;;8.39;84.54
51359;BME280;37448;51.588;7.248;2023-05-25T01:20:04;101856.22;;;8.37;84.97
51359;BME280;37448;51.588;7.248;2023-05-25T01:25:02;101866.59;;;8.33;85.93
51359;BME280;37448;51.588;7.248;2023-05-25T01:27:22;101865.72;;;8.33;85.29
51359;BME280;37448;51.588;7.248;2023-05-25T01:29:25;101864.88;;;8.36;85.42
51359;BME280;37448;51.588;7.248;2023-05-25T01:31:27;101873.56;;;8.38;84.86
51359;BME280;37448;51.588;7.248;2023-05-25T01:33:29;101865.72;;;8.36;85.41
51359;BME280;37448;51.588;7.248;2023-05-25T01:35:30;101867.47;;;8.36;84.52
51359;BME280;37448;51.588;7.248;2023-05-25T01:37:34;101866.59;;;8.35;84.76
51359;BME280;37448;51.588;7.248;2023-05-25T01:39:36;101870.06;;;8.32;84.74
51359;BME280;37448;51.588;7.248;2023-05-25T01:41:37;101864.84;;;8.32;85.26
51359;BME280;37448;51.588;7.248;2023-05-25T01:43:37;101869.19;;;8.32;85.03
51359;BME280;37448;51.588;7.248;2023-05-25T01:45:39;101861.34;;;8.30;84.98
51359;BME280;37448;51.588;7.248;2023-05-25T01:50:27;101863.06;;;8.28;85.21
51359;BME280;37448;51.588;7.248;2023-05-25T01:52:34;101864.78;;;8.26;85.17
51359;BME280;37448;51.588;7.248;2023-05-25T01:54:39;101868.25;;;8.24;85.29
51359;BME280;37448;51.588;7.248;2023-05-25T01:56:44;101866.50;;;8.21;84.81
51359;BME280;37448;51.588;7.248;2023-05-25T01:58:47;101871.69;;;8.21;85.19
51359;BME280;37448;51.588;7.248;2023-05-25T02:00:50;101872.50;;;8.15;85.64
51359;BME280;37448;51.588;7.248;2023-05-25T02:02:52;101872.53;;;8.17;84.92
51359;BME280;37448;51.588;7.248;2023-05-25T02:04:54;101874.25;;;8.16;84.89
51359;BME280;37448;51.588;7.248;2023-05-25T02:06:56;101878.56;;;8.13;85.56
51359;BME280;37448;51.588;7.248;2023-05-25T02:08:56;101870.75;;;8.11;84.74
51359;BME280;37448;51.588;7.248;2023-05-25T02:10:58;101868.97;;;8.07;85.09
51359;BME280;37448;51.588;7.248;2023-05-25T02:12:59;101869.84;;;8.08;85.72
51359;BME280;37448;51.588;7.248;2023-05-25T02:14:59;101869.81;;;8.04;85.62
51359;BME280;37448;51.588;7.248;2023-05-25T02:17:00;101876.72;;;8.02;84.95
51359;BME280;37448;51.588;7.248;2023-05-25T02:19:01;101871.50;;;7.99;85.18
51359;BME280;37448;51.588;7.248;2023-05-25T02:21:02;101875.81;;;7.97;84.90
51359;BME280;37448;51.588;7.248;2023-05-25T02:23:02;101874.91;;;7.92;84.93
51359;BME280;37448;51.588;7.248;2023-05-25T02:25:03;101877.47;;;7.87;84.74
51359;BME280;37448;51.588;7.248;2023-05-25T02:27:05;101881.78;;;7.84;85.10
51359;BME280;37448;51.588;7.248;2023-05-25T02:29:06;101882.59;;;7.78;85.30
51359;BME280;37448;51.588;7.248;2023-05-25T02:31:06;101882.53;;;7.73;85.00
51359;BME280;37448;51.588;7.248;2023-05-25T02:33:07;101879.91;;;7.70;85.07
51359;BME280;37448;51.588;7.248;2023-05-25T02:35:08;101885.94;;;7.66;84.92
51359;BME280;37448;51.588;7.248;2023-05-25T02:37:09;101879.81;;;7.63;84.62
51359;BME280;37448;51.588;7.248;2023-05-25T02:39:10;101879.75;;;7.58;84.93
51359;BME280;37448;51.588;7.248;2023-05-25T02:41:12;101882.34;;;7.55;84.91
51359;BME280;37448;51.588;7.248;2023-05-25T02:43:12;101884.91;;;7.52;84.74
51359;BME280;37448;51.588;7.248;2023-05-25T02:45:13;101891.78;;;7.46;84.31
51359;BME280;37448;51.588;7.248;2023-05-25T02:47:14;101890.91;;;7.44;84.92
51359;BME280;37448;51.588;7.248;2023-05-25T02:49:15;101886.53;;;7.40;84.50
51359;BME280;37448;51.588;7.248;2023-05-25T02:51:16;101899.50;;;7.39;84.83
51359;BME280;37448;51.588;7.248;2023-05-25T02:53:16;101891.63;;;7.34;84.48
51359;BME280;37448;51.588;7.248;2023-05-25T02:55:17;101895.09;;;7.35;84.56
51359;BME280;37448;51.588;7.248;2023-05-25T02:57:18;101892.47;;;7.31;84.92
51359;BME280;37448;51.588;7.248;2023-05-25T02:59:18;101893.31;;;7.29;84.77
51359;BME280;37448;51.588;7.248;2023-05-25T03:01:19;101889.81;;;7.27;84.44
51359;BME280;37448;51.588;7.248;2023-05-25T03:03:28;101888.06;;;7.26;84.66
51359;BME280;37448;51.588;7.248;2023-05-25T03:05:29;101879.38;;;7.24;84.63
51359;BME280;37448;51.588;7.248;2023-05-25T03:07:34;101882.84;;;7.23;84.54
51359;BME280;37448;51.588;7.248;2023-05-25T03:09:34;101875.00;;;7.20;84.54
51359;BME280;37448;51.588;7.248;2023-05-25T03:11:40;101884.56;;;7.21;84.78
51359;BME280;37448;51.588;7.248;2023-05-25T03:13:40;101890.63;;;7.23;85.40
51359;BME280;37448;51.588;7.248;2023-05-25T03:15:40;101890.59;;;7.21;84.31
51359;BME280;37448;51.588;7.248;2023-05-25T03:17:41;101892.34;;;7.21;84.80
51359;BME280;37448;51.588;7.248;2023-05-25T03:19:41;101893.19;;;7.20;84.76
51359;BME280;37448;51.588;7.248;2023-05-25T03:21:43;101898.41;;;7.20;84.86
51359;BME280;37448;51.588;7.248;2023-05-25T03:23:44;101898.41;;;7.20;85.05
51359;BME280;37448;51.588;7.248;2023-05-25T03:25:45;101899.28;;;7.22;85.42
51359;BME280;37448;51.588;7.248;2023-05-25T03:27:45;101901.88;;;7.23;86.23
51359;BME280;37448;51.588;7.248;2023-05-25T03:29:49;101907.13;;;7.25;86.39
51359;BME280;37448;51.588;7.248;2023-05-25T03:31:50;101907.13;;;7.25;86.58
51359;BME280;37448;51.588;7.248;2023-05-25T03:33:51;101909.72;;;7.25;86.51
51359;BME280;37448;51.588;7.248;2023-05-25T03:35:54;101911.41;;;7.23;87.17
51359;BME280;37448;51.588;7.248;2023-05-25T03:37:54;101914.03;;;7.23;86.87
51359;BME280;37448;51.588;7.248;2023-05-25T03:39:55;101920.09;;;7.25;86.80
51359;BME280;37448;51.588;7.248;2023-05-25T03:41:56;101918.38;;;7.24;86.49
51359;BME280;37448;51.588;7.248;2023-05-25T03:43:58;101925.31;;;7.25;86.63
51359;BME280;37448;51.588;7.248;2023-05-25T03:45:58;101925.28;;;7.23;86.87
51359;BME280;37448;51.588;7.248;2023-05-25T03:47:58;101925.31;;;7.25;86.52
51359;BME280;37448;51.588;7.248;2023-05-25T03:49:59;101927.91;;;7.25;86.50
51359;BME280;37448;51.588;7.248;2023-05-25T03:52:00;101921.81;;;7.23;87.07
51359;BME280;37448;51.588;7.248;2023-05-25T03:54:00;101927.88;;;7.22;88.10
51359;BME280;37448;51.588;7.248;2023-05-25T03:56:01;101932.25;;;7.26;87.05
51359;BME280;37448;51.588;7.248;2023-05-25T03:58:01;101933.13;;;7.28;87.29
51359;BME280;37448;51.588;7.248;2023-05-25T04:00:01;101937.47;;;7.29;87.43
51359;BME280;37448;51.588;7.248;2023-05-25T04:02:12;101932.31;;;7.30;87.69
51359;BME280;37448;51.588;7.248;2023-05-25T04:04:13;101934.09;;;7.35;87.29
51359;BME280;37448;51.588;7.248;2023-05-25T04:06:13;101939.31;;;7.38;87.06
51359;BME280;37448;51.588;7.248;2023-05-25T04:08:18;101942.81;;;7.40;86.90
51359;BME280;37448;51.588;7.248;2023-05-25T04:10:18;101942.00;;;7.42;86.94
51359;BME280;37448;51.588;7.248;2023-05-25T04:12:19;101948.94;;;7.43;87.11
51359;BME280;37448;51.588;7.248;2023-05-25T04:14:19;101945.50;;;7.47;87.08
51359;BME280;37448;51.588;7.248;2023-05-25T04:16:21;101945.53;;;7.51;86.85
51359;BME280;37448;51.588;7.248;2023-05-25T04:18:22;101944.72;;;7.55;87.02
51359;BME280;37448;51.588;7.248;2023-05-25T04:20:23;101946.50;;;7.57;86.62
51359;BME280;37448;51.588;7.248;2023-05-25T04:22:23;101943.88;;;7.56;86.77
51359;BME280;37448;51.588;7.248;2023-05-25T04:24:24;101951.72;;;7.60;86.42
51359;BME280;37448;51.588;7.248;2023-05-25T04:26:24;101956.09;;;7.63;86.53
51359;BME280;37448;51.588;7.248;2023-05-25T04:28:29;101959.59;;;7.65;85.99
51359;BME280;37448;51.588;7.248;2023-05-25T04:30:41;101950.94;;;7.66;86.79
51359;BME280;37448;51.588;7.248;2023-05-25T04:32:59;101954.47;;;7.71;86.36
51359;BME280;37448;51.588;7.248;2023-05-25T04:35:10;101945.78;;;7.71;86.48
51359;BME280;37448;51.588;7.248;2023-05-25T04:37:16;101957.09;;;7.74;86.82
51359;BME280;37448;51.588;7.248;2023-05-25T04:39:17;101946.72;;;7.78;86.41
51359;BME280;37448;51.588;7.248;2023-05-25T04:41:23;101951.06;;;7.77;86.42
51359;BME280;37448;51.588;7.248;2023-05-25T04:43:27;101951.97;;;7.82;86.61
51359;BME280;37448;51.588;7.248;2023-05-25T04:45:29;101953.69;;;7.82;86.44
51359;BME280;37448;51.588;7.248;2023-05-25T04:47:32;101959.00;;;7.88;86.28
51359;BME280;37448;51.588;7.248;2023-05-25T04:49:34;101965.09;;;7.93;86.65
51359;BME280;37448;51.588;7.248;2023-05-25T04:51:34;101968.63;;;7.98;86.18
51359;BME280;37448;51.588;7.248;2023-05-25T04:53:36;101967.72;;;7.96;86.16
51359;BME280;37448;51.588;7.248;2023-05-25T04:55:37;101973.81;;;7.98;86.27
51359;BME280;37448;51.588;7.248;2023-05-25T04:57:39;101978.22;;;8.04;86.03
51359;BME280;37448;51.588;7.248;2023-05-25T04:59:39;101987.72;;;8.00;86.01
51359;BME280;37448;51.588;7.248;2023-05-25T05:01:40;101987.78;;;8.07;86.19
51359;BME280;37448;51.588;7.248;2023-05-25T05:03:41;101984.44;;;8.17;85.94
51359;BME280;37448;51.588;7.248;2023-05-25T05:05:42;101991.34;;;8.15;85.60
51359;BME280;37448;51.588;7.248;2023-05-25T05:07:47;101988.75;;;8.15;85.85
51359;BME280;37448;51.588;7.248;2023-05-25T05:09:48;102000.09;;;8.22;85.73
51359;BME280;37448;51.588;7.248;2023-05-25T05:11:49;101995.75;;;8.21;86.01
51359;BME280;37448;51.588;7.248;2023-05-25T05:13:51;101996.63;;;8.24;84.91
51359;BME280;37448;51.588;7.248;2023-05-25T05:15:51;102001.09;;;8.35;85.68
51359;BME280;37448;51.588;7.248;2023-05-25T05:17:53;101998.53;;;8.42;85.28
51359;BME280;37448;51.588;7.248;2023-05-25T05:19:53;101994.34;;;8.55;85.61
51359;BME280;37448;51.588;7.248;2023-05-25T05:21:54;102008.28;;;8.60;85.12
51359;BME280;37448;51.588;7.248;2023-05-25T05:23:55;102003.00;;;8.54;84.96
51359;BME280;37448;51.588;7.248;2023-05-25T05:25:58;102000.50;;;8.64;84.73
51359;BME280;37448;51.588;7.248;2023-05-25T05:27:58;102007.44;;;8.61;84.44
51359;BME280;37448;51.588;7.248;2023-05-25T05:30:05;102010.09;;;8.69;84.75
51359;BME280;37448;51.588;7.248;2023-05-25T05:32:07;102010.16;;;8.77;84.17
51359;BME280;37448;51.588;7.248;2023-05-25T05:34:07;102015.53;;;8.99;84.38
51359;BME280;37448;51.588;7.248;2023-05-25T05:36:08;102009.63;;;9.26;84.32
51359;BME280;37448;51.588;7.248;2023-05-25T05:38:09;102014.13;;;9.55;82.86
51359;BME280;37448;51.588;7.248;2023-05-25T05:40:10;102021.19;;;9.80;80.32
51359;BME280;37448;51.588;7.248;2023-05-25T05:42:13;102028.25;;;10.13;80.32
51359;BME280;37448;51.588;7.248;2023-05-25T05:44:13;102024.84;;;10.41;78.41
51359;BME280;37448;51.588;7.248;2023-05-25T05:46:14;102020.50;;;10.80;78.23
51359;BME280;37448;51.588;7.248;2023-05-25T05:48:15;102032.69;;;11.06;77.62
51359;BME280;37448;51.588;7.248;2023-05-25T05:50:15;102036.16;;;11.06;75.88
51359;BME280;37448;51.588;7.248;2023-05-25T05:52:16;102030.88;;;11.38;74.56
51359;BME280;37448;51.588;7.248;2023-05-25T05:54:16;102037.72;;;11.77;77.45
51359;BME280;37448;51.588;7.248;2023-05-25T05:56:17;102044.59;;;12.08;73.37
51359;BME280;37448;51.588;7.248;2023-05-25T05:58:19;102042.81;;;12.12;71.01
51359;BME280;37448;51.588;7.248;2023-05-25T06:00:20;102044.38;;;12.42;72.31
51359;BME280;37448;51.588;7.248;2023-05-25T06:02:21;102036.44;;;12.53;70.34
51359;BME280;37448;51.588;7.248;2023-05-25T06:04:21;102038.41;;;12.23;68.89
51359;BME280;37448;51.588;7.248;2023-05-25T06:06:24;102040.84;;;12.48;68.09
51359;BME280;37448;51.588;7.248;2023-05-25T06:08:25;102039.88;;;12.63;70.12
51359;BME280;37448;51.588;7.248;2023-05-25T06:10:26;102037.09;;;12.82;68.55
51359;BME280;37448;51.588;7.248;2023-05-25T06:12:27;102041.28;;;13.04;68.65
51359;BME280;37448;51.588;7.248;2023-05-25T06:14:27;102040.06;;;13.35;68.52
51359;BME280;37448;51.588;7.248;2023-05-25T06:16:28;102039.91;;;13.54;69.28
51359;BME280;37448;51.588;7.248;2023-05-25T06:18:28;102037.19;;;13.63;68.80
51359;BME280;37448;51.588;7.248;2023-05-25T06:20:30;102036.97;;;13.80;66.08
51359;BME280;37448;51.588;7.248;2023-05-25T06:22:31;102039.84;;;13.57;63.94
51359;BME280;37448;51.588;7.248;2023-05-25T06:24:32;102048.28;;;13.84;64.00
51359;BME280;37448;51.588;7.248;2023-05-25T06:26:32;102048.50;;;13.68;64.81
51359;BME280;37448;51.588;7.248;2023-05-25T06:28:33;102051.25;;;13.56;63.44
51359;BME280;37448;51.588;7.248;2023-05-25T06:30:33;102055.41;;;13.75;63.78
51359;BME280;37448;51.588;7.248;2023-05-25T06:32:35;102055.22;;;13.05;64.53
51359;BME280;37448;51.588;7.248;2023-05-25T06:34:35;102058.84;;;12.95;64.52
51359;BME280;37448;51.588;7.248;2023-05-25T06:36:36;102054.41;;;13.00;65.39
51359;BME280;37448;51.588;7.248;2023-05-25T06:38:37;102057.69;;;13.24;64.78
51359;BME280;37448;51.588;7.248;2023-05-25T06:40:37;102059.84;;;13.69;64.72
51359;BME280;37448;51.588;7.248;2023-05-25T06:42:38;102066.06;;;13.60;63.72
51359;BME280;37448;51.588;7.248;2023-05-25T06:44:53;102067.78;;;13.64;63.74
51359;BME280;37448;51.588;7.248;2023-05-25T06:46:53;102066.03;;;13.66;63.92
51359;BME280;37448;51.588;7.248;2023-05-25T06:48:54;102075.59;;;13.70;64.52
51359;BME280;37448;51.588;7.248;2023-05-25T06:50:54;102074.16;;;13.37;64.11
51359;BME280;37448;51.588;7.248;2023-05-25T06:52:55;102074.50;;;12.99;65.10
51359;BME280;37448;51.588;7.248;2023-05-25T06:54:55;102077.94;;;13.07;65.63
51359;BME280;37448;51.588;7.248;2023-05-25T06:56:56;102081.56;;;12.94;66.28
51359;BME280;37448;51.588;7.248;2023-05-25T06:58:56;102075.50;;;12.84;66.48
51359;BME280;37448;51.588;7.248;2023-05-25T07:00:56;102082.50;;;12.85;66.17
51359;BME280;37448;51.588;7.248;2023-05-25T07:02:57;102092.88;;;13.01;66.52
51359;BME280;37448;51.588;7.248;2023-05-25T07:04:57;102082.56;;;12.79;66.55
51359;BME280;37448;51.588;7.248;2023-05-25T07:06:58;102083.34;;;12.87;66.93
51359;BME280;37448;51.588;7.248;2023-05-25T07:08:58;102082.56;;;12.76;67.51
51359;BME280;37448;51.588;7.248;2023-05-25T07:10:58;102084.41;;;12.61;67.72
51359;BME280;37448;51.588;7.248;2023-05-25T07:12:59;102084.19;;;12.96;67.22
51359;BME280;37448;51.588;7.248;2023-05-25T07:14:59;102080.28;;;13.37;67.02
51359;BME280;37448;51.588;7.248;2023-05-25T07:17:00;102075.38;;;13.89;66.63
51359;BME280;37448;51.588;7.248;2023-05-25T07:19:00;102079.56;;;14.02;65.20
51359;BME280;37448;51.588;7.248;2023-05-25T07:21:00;102080.44;;;14.66;63.44
51359;BME280;37448;51.588;7.248;2023-05-25T07:23:02;102080.47;;;15.17;61.84
51359;BME280;37448;51.588;7.248;2023-05-25T07:25:03;102080.16;;;14.84;61.89
51359;BME280;37448;51.588;7.248;2023-05-25T07:27:03;102078.28;;;15.41;62.28
51359;BME280;37448;51.588;7.248;2023-05-25T07:29:04;102086.09;;;14.96;60.61
51359;BME280;37448;51.588;7.248;2023-05-25T07:31:04;102084.28;;;14.43;62.54
51359;BME280;37448;51.588;7.248;2023-05-25T07:33:05;102083.84;;;14.10;61.47
51359;BME280;37448;51.588;7.248;2023-05-25T07:35:05;102090.28;;;13.87;62.82
51359;BME280;37448;51.588;7.248;2023-05-25T07:37:06;102097.34;;;13.78;63.05
51359;BME280;37448;51.588;7.248;2023-05-25T07:39:06;102092.50;;;13.41;64.38
51359;BME280;37448;51.588;7.248;2023-05-25T07:41:08;102091.78;;;13.24;64.88
51359;BME280;37448;51.588;7.248;2023-05-25T07:43:08;102100.94;;;12.76;66.59
51359;BME280;37448;51.588;7.248;2023-05-25T07:45:09;102103.41;;;12.93;66.27
51359;BME280;37448;51.588;7.248;2023-05-25T07:47:10;102102.78;;;12.60;66.88
51359;BME280;37448;51.588;7.248;2023-05-25T07:49:10;102107.91;;;12.75;66.91
51359;BME280;37448;51.588;7.248;2023-05-25T07:51:15;102102.41;;;13.08;66.01
51359;BME280;37448;51.588;7.248;2023-05-25T07:53:15;102104.19;;;13.06;65.49
51359;BME280;37448;51.588;7.248;2023-05-25T07:55:16;102102.59;;;12.83;66.38
51359;BME280;37448;51.588;7.248;2023-05-25T07:57:18;102105.88;;;13.12;66.13
51359;BME280;37448;51.588;7.248;2023-05-25T07:59:18;102105.69;;;13.32;65.07
51359;BME280;37448;51.588;7.248;2023-05-25T08:01:18;102117.22;;;13.12;64.72
51359;BME280;37448;51.588;7.248;2023-05-25T08:03:19;102111.81;;;13.31;64.42
51359;BME280;37448;51.588;7.248;2023-05-25T08:05:19;102107.47;;;13.31;64.88
51359;BME280;37448;51.588;7.248;2023-05-25T08:07:19;102115.44;;;13.20;65.19
51359;BME280;37448;51.588;7.248;2023-05-25T08:09:20;102112.69;;;13.33;64.77
51359;BME280;37448;51.588;7.248;2023-05-25T08:11:22;102118.66;;;13.51;65.09
51359;BME280;37448;51.588;7.248;2023-05-25T08:13:24;102104.94;;;13.20;63.80
51359;BME280;37448;51.588;7.248;2023-05-25T08:15:24;102117.00;;;13.40;64.88
51359;BME280;37448;51.588;7.248;2023-05-25T08:17:25;102114.53;;;13.21;64.21
51359;BME280;37448;51.588;7.248;2023-05-25T08:19:25;102115.22;;;13.45;64.80
51359;BME280;37448;51.588;7.248;2023-05-25T08:21:26;102116.06;;;13.47;64.43
51359;BME280;37448;51.588;7.248;2023-05-25T08:23:26;102118.72;;;13.43;65.53
51359;BME280;37448;51.588;7.248;2023-05-25T08:25:27;102124.31;;;13.04;64.84
51359;BME280;37448;51.588;7.248;2023-05-25T08:27:27;102125.09;;;13.12;65.91
51359;BME280;37448;51.588;7.248;2023-05-25T08:29:27;102128.03;;;12.75;65.85
51359;BME280;37448;51.588;7.248;2023-05-25T08:31:29;102127.13;;;12.74;66.41
51359;BME280;37448;51.588;7.248;2023-05-25T08:33:30;102135.22;;;12.35;66.58
51359;BME280;37448;51.588;7.248;2023-05-25T08:35:30;102136.06;;;12.47;67.04
51359;BME280;37448;51.588;7.248;2023-05-25T08:37:31;102138.50;;;12.75;66.61
51359;BME280;37448;51.588;7.248;2023-05-25T08:39:32;102134.94;;;12.84;66.20
51359;BME280;37448;51.588;7.248;2023-05-25T08:41:41;102139.47;;;12.58;66.65
51359;BME280;37448;51.588;7.248;2023-05-25T08:43:42;102150.78;;;12.68;67.24
51359;BME280;37448;51.588;7.248;2023-05-25T08:45:42;102146.50;;;12.50;66.12
51359;BME280;37448;51.588;7.248;2023-05-25T08:47:43;102147.47;;;12.33;66.74
51359;BME280;37448;51.588;7.248;2023-05-25T08:49:44;102147.56;;;12.12;66.86
51359;BME280;37448;51.588;7.248;2023-05-25T08:51:48;102145.63;;;12.54;67.06
51359;BME280;37448;51.588;7.248;2023-05-25T08:53:49;102143.88;;;12.53;66.36
51359;BME280;37448;51.588;7.248;2023-05-25T08:55:52;102142.03;;;12.71;66.64
51359;BME280;37448;51.588;7.248;2023-05-25T08:57:57;102149.84;;;12.75;65.82
51359;BME280;37448;51.588;7.248;2023-05-25T09:00:03;102145.41;;;12.85;66.54
51359;BME280;37448;51.588;7.248;2023-05-25T09:03:14;102149.81;;;12.82;64.92
51359;BME280;37448;51.588;7.248;2023-05-25T09:04:54;102150.63;;;12.88;66.15
51359;BME280;37448;51.588;7.248;2023-05-25T09:06:55;102141.88;;;12.89;65.16
51359;BME280;37448;51.588;7.248;2023-05-25T09:08:56;102147.94;;;13.01;65.25
51359;BME280;37448;51.588;7.248;2023-05-25T09:10:57;102150.47;;;13.10;67.05
51359;BME280;37448;51.588;7.248;2023-05-25T09:12:59;102150.72;;;12.81;65.37
51359;BME280;37448;51.588;7.248;2023-05-25T09:15:00;102151.53;;;12.86;65.92
51359;BME280;37448;51.588;7.248;2023-05-25T09:17:01;102150.59;;;12.95;66.28
51359;BME280;37448;51.588;7.248;2023-05-25T09:19:01;102161.81;;;13.12;65.63
51359;BME280;37448;51.588;7.248;2023-05-25T09:21:02;102158.59;;;12.76;65.29
51359;BME280;37448;51.588;7.248;2023-05-25T09:23:04;102151.66;;;12.67;66.44
51359;BME280;37448;51.588;7.248;2023-05-25T09:25:06;102154.28;;;12.62;66.71
51359;BME280;37448;51.588;7.248;2023-05-25T09:27:10;102151.59;;;12.75;66.30
51359;BME280;37448;51.588;7.248;2023-05-25T09:29:14;102154.16;;;12.84;66.08
51359;BME280;37448;51.588;7.248;2023-05-25T09:31:15;102154.22;;;12.78;66.35
51359;BME280;37448;51.588;7.248;2023-05-25T09:33:16;102150.59;;;12.95;66.20
51359;BME280;37448;51.588;7.248;2023-05-25T09:35:19;102151.34;;;13.09;66.78
51359;BME280;37448;51.588;7.248;2023-05-25T09:37:22;102158.41;;;13.01;66.20
51359;BME280;37448;51.588;7.248;2023-05-25T09:39:24;102159.41;;;12.84;66.16
51359;BME280;37448;51.588;7.248;2023-05-25T09:41:24;102161.06;;;12.98;65.75
51359;BME280;37448;51.588;7.248;2023-05-25T09:43:28;102160.31;;;12.75;66.31
51359;BME280;37448;51.588;7.248;2023-05-25T09:45:28;102155.97;;;12.74;66.43
51359;BME280;37448;51.588;7.248;2023-05-25T09:47:29;102151.41;;;13.04;66.63
51359;BME280;37448;51.588;7.248;2023-05-25T09:49:30;102160.03;;;13.16;65.56
51359;BME280;37448;51.588;7.248;2023-05-25T09:51:30;102160.06;;;13.17;67.11
51359;BME280;37448;51.588;7.248;2023-05-25T09:53:32;102159.09;;;13.25;65.39
51359;BME280;37448;51.588;7.248;2023-05-25T09:55:33;102156.34;;;13.40;66.24
51359;BME280;37448;51.588;7.248;2023-05-25T09:57:34;102159.91;;;13.33;65.39
51359;BME280;37448;51.588;7.248;2023-05-25T09:59:35;102167.78;;;13.33;65.06
51359;BME280;37448;51.588;7.248;2023-05-25T10:01:36;102166.84;;;13.37;65.25
51359;BME280;37448;51.588;7.248;2023-05-25T10:03:44;102171.28;;;13.33;66.17
51359;BME280;37448;51.588;7.248;2023-05-25T10:05:45;102167.72;;;13.45;65.09
51359;BME280;37448;51.588;7.248;2023-05-25T10:07:46;102166.84;;;13.40;65.59
51359;BME280;37448;51.588;7.248;2023-05-25T10:09:49;102173.06;;;13.28;65.30
51359;BME280;37448;51.588;7.248;2023-05-25T10:11:50;102169.41;;;13.49;66.22
51359;BME280;37448;51.588;7.248;2023-05-25T10:13:52;102172.00;;;13.53;65.57
51359;BME280;37448;51.588;7.248;2023-05-25T10:15:53;102173.19;;;13.11;65.08
51359;BME280;37448;51.588;7.248;2023-05-25T10:17:56;102174.78;;;13.31;65.78
51359;BME280;37448;51.588;7.248;2023-05-25T10:19:59;102181.69;;;13.47;64.98
51359;BME280;37448;51.588;7.248;2023-05-25T10:22:14;102171.91;;;13.65;64.52
51359;BME280;37448;51.588;7.248;2023-05-25T10:24:24;102178.78;;;13.74;65.27
51359;BME280;37448;51.588;7.248;2023-05-25T10:26:26;102179.31;;;14.05;66.18
51359;BME280;37448;51.588;7.248;2023-05-25T10:28:36;102183.59;;;14.16;64.29
51359;BME280;37448;51.588;7.248;2023-05-25T10:30:40;102184.94;;;14.48;64.66
51359;BME280;37448;51.588;7.248;2023-05-25T10:32:41;102175.00;;;14.72;62.33
51359;BME280;37448;51.588;7.248;2023-05-25T10:34:44;102189.59;;;14.93;64.65
51359;BME280;37448;51.588;7.248;2023-05-25T10:36:45;102178.78;;;15.12;63.38
51359;BME280;37448;51.588;7.248;2023-05-25T10:38:50;102179.31;;;15.34;63.90
51359;BME280;37448;51.588;7.248;2023-05-25T10:40:52;102176.72;;;15.31;62.50
51359;BME280;37448;51.588;7.248;2023-05-25T10:42:53;102178.66;;;15.19;60.79
51359;BME280;37448;51.588;7.248;2023-05-25T10:44:54;102180.00;;;14.90;61.92
51359;BME280;37448;51.588;7.248;2023-05-25T10:46:57;102177.53;;;14.78;60.23